createdAt,value
2019-04-16T00:02:04.092Z,100297.95
2019-04-16T00:04:56.589Z,100290.63
2019-04-16T00:07:47.108Z,100285.91
2019-04-16T00:10:26.413Z,100292.41
2019-04-16T00:13:07.989Z,100286.36
2019-04-16T00:15:41.024Z,100284.62
2019-04-16T00:18:10.555Z,100284.64
2019-04-16T00:20:58.492Z,100284.20
2019-04-16T00:23:46.595Z,100280.31
2019-04-16T00:26:15.536Z,100283.38
2019-04-16T00:28:46.205Z,100279.05
2019-04-16T00:31:16.581Z,100274.70
2019-04-16T00:33:46.990Z,100273.84
2019-04-16T00:36:18.747Z,100266.94
2019-04-16T00:38:53.861Z,100270.00
2019-04-16T00:41:21.179Z,100270.42
2019-04-16T00:43:51.698Z,100271.30
2019-04-16T00:46:22.513Z,100270.03
2019-04-16T00:48:52.962Z,100272.62
2019-04-16T00:51:23.443Z,100268.31
2019-04-16T00:53:53.885Z,100261.84
2019-04-16T00:56:24.673Z,100268.30
2019-04-16T00:58:55.107Z,100267.42
2019-04-16T01:01:25.487Z,100273.49
2019-04-16T01:03:55.858Z,100277.80
2019-04-16T01:06:26.811Z,100268.27
2019-04-16T01:08:57.154Z,100277.80
2019-04-16T01:11:27.869Z,100273.50
2019-04-16T01:13:58.318Z,100270.47
2019-04-16T01:16:30.274Z,100270.05
2019-04-16T01:19:01.193Z,100270.48
2019-04-16T01:21:31.626Z,100273.05
2019-04-16T01:24:02.058Z,100266.58
2019-04-16T01:26:32.618Z,100267.44
2019-04-16T01:29:21.584Z,100267.01
2019-04-16T01:32:11.909Z,100259.70
2019-04-16T01:35:07.052Z,100253.25
2019-04-16T01:37:56.846Z,100253.67
2019-04-16T01:40:34.072Z,100257.57
2019-04-16T01:43:04.498Z,100251.51
2019-04-16T01:45:35.148Z,100247.64
2019-04-16T01:48:07.829Z,100254.95
2019-04-16T01:50:38.335Z,100251.08
2019-04-16T01:53:09.460Z,100252.72
2019-04-16T01:55:42.324Z,100251.00
2019-04-16T01:58:12.376Z,100252.29
2019-04-16T02:00:43.047Z,100249.30
2019-04-16T02:03:17.571Z,100251.86
2019-04-16T02:05:45.632Z,100254.41
2019-04-16T02:08:16.094Z,100252.64
2019-04-16T02:10:46.392Z,100248.31
2019-04-16T02:13:17.499Z,100254.37
2019-04-16T02:15:50.636Z,100242.78
2019-04-16T02:18:20.671Z,100247.06
2019-04-16T02:20:51.102Z,100241.91
2019-04-16T02:23:21.871Z,100244.94
2019-04-16T02:25:52.279Z,100242.31
2019-04-16T02:28:27.891Z,100238.84
2019-04-16T02:30:55.072Z,100241.00
2019-04-16T02:33:25.844Z,100239.27
2019-04-16T02:35:56.801Z,100238.78
2019-04-16T02:38:27.624Z,100240.52
2019-04-16T02:40:58.032Z,100239.61
2019-04-16T02:43:28.880Z,100237.01
2019-04-16T02:45:59.575Z,100240.87
2019-04-16T02:48:30.295Z,100237.43
2019-04-16T02:51:08.621Z,100240.01
2019-04-16T02:53:47.452Z,100241.30
2019-04-16T02:56:39.933Z,100234.42
2019-04-16T02:59:16.471Z,100237.00
2019-04-16T03:02:14.660Z,100229.22
2019-04-16T03:04:49.153Z,100223.59
2019-04-16T03:07:19.794Z,100228.70
2019-04-16T03:10:00.715Z,100226.57
2019-04-16T03:12:22.822Z,100222.25
2019-04-16T03:14:53.091Z,100222.17
2019-04-16T03:17:42.838Z,100223.47
2019-04-16T03:20:12.992Z,100213.13
2019-04-16T03:22:43.556Z,100218.23
2019-04-16T03:25:14.864Z,100212.14
2019-04-16T03:27:45.435Z,100209.04
2019-04-16T03:30:16.195Z,100216.70
2019-04-16T03:32:52.585Z,100208.61
2019-04-16T03:35:26.603Z,100211.60
2019-04-16T03:37:55.706Z,100210.70
2019-04-16T03:40:26.731Z,100205.56
2019-04-16T03:42:59.290Z,100208.50
2019-04-16T03:45:30.114Z,100196.05
2019-04-16T03:48:00.463Z,100201.24
2019-04-16T03:50:32.075Z,100202.06
2019-04-16T03:53:02.580Z,100198.97
2019-04-16T03:55:33.008Z,100202.77
2019-04-16T03:58:06.106Z,100198.95
2019-04-16T04:00:36.207Z,100205.41
2019-04-16T04:03:06.559Z,100198.97
2019-04-16T04:05:36.857Z,100193.41
2019-04-16T04:08:07.402Z,100198.52
2019-04-16T04:10:37.981Z,100197.60
2019-04-16T04:13:08.573Z,100200.97
2019-04-16T04:15:39.380Z,100193.20
2019-04-16T04:18:11.797Z,100200.39
2019-04-16T04:20:41.859Z,100198.15
2019-04-16T04:23:12.676Z,100193.41
2019-04-16T04:25:43.196Z,100196.84
2019-04-16T04:28:18.472Z,100200.67
2019-04-16T04:30:48.812Z,100208.84
2019-04-16T04:33:40.375Z,100199.02
2019-04-16T04:36:10.369Z,100143.68
2019-04-16T04:38:41.246Z,100196.38
2019-04-16T04:41:11.993Z,100204.62
2019-04-16T04:43:43.090Z,100200.30
2019-04-16T04:46:15.329Z,100198.15
2019-04-16T04:48:46.564Z,100198.62
2019-04-16T04:51:17.064Z,100206.95
2019-04-16T04:53:50.242Z,100207.86
2019-04-16T04:56:20.507Z,100209.23
2019-04-16T04:58:51.288Z,100207.11
2019-04-16T05:01:21.676Z,100206.23
2019-04-16T05:04:26.332Z,100204.95
2019-04-16T05:06:58.912Z,100170.06
2019-04-16T05:09:32.671Z,100215.81
2019-04-16T05:12:02.404Z,100216.75
2019-04-16T05:14:32.797Z,100224.16
2019-04-16T05:17:06.503Z,100226.80
2019-04-16T05:19:58.007Z,100227.76
2019-04-16T05:22:28.746Z,100229.61
2019-04-16T05:25:01.421Z,100231.88
2019-04-16T05:27:34.246Z,100231.95
2019-04-16T05:30:05.387Z,100234.63
2019-04-16T05:32:35.818Z,100238.53
2019-04-16T05:35:10.317Z,100239.00
2019-04-16T05:37:38.698Z,100236.87
2019-04-16T05:40:10.778Z,100232.12
2019-04-16T05:42:41.044Z,100231.66
2019-04-16T05:45:12.336Z,100238.09
2019-04-16T05:47:42.761Z,100245.34
2019-04-16T05:50:13.189Z,100239.20
2019-04-16T05:52:43.547Z,100240.41
2019-04-16T05:55:32.850Z,100238.13
2019-04-16T05:58:03.253Z,100239.31
2019-04-16T06:00:52.714Z,100241.98
2019-04-16T06:03:23.138Z,100247.55
2019-04-16T06:05:53.447Z,100253.97
2019-04-16T06:08:24.002Z,100251.66
2019-04-16T06:10:57.499Z,100242.55
2019-04-16T06:13:45.232Z,100241.91
2019-04-16T06:16:47.121Z,100241.05
2019-04-16T06:19:45.941Z,100242.55
2019-04-16T06:22:31.298Z,100244.22
2019-04-16T06:25:20.603Z,100241.28
2019-04-16T06:28:08.491Z,100239.92
2019-04-16T06:30:49.315Z,100236.10
2019-04-16T06:33:44.856Z,100247.52
2019-04-16T06:36:49.739Z,100249.10
2019-04-16T06:39:33.486Z,100247.51
2019-04-16T06:42:23.259Z,100251.55
2019-04-16T06:44:56.061Z,100243.40
2019-04-16T06:47:54.455Z,100248.50
2019-04-16T06:50:44.056Z,100240.93
2019-04-16T06:53:33.831Z,100241.83
2019-04-16T06:56:13.375Z,100241.65
2019-04-16T06:59:05.674Z,100253.56
2019-04-16T07:01:53.402Z,100254.87
2019-04-16T07:04:41.205Z,100248.31
2019-04-16T07:07:40.292Z,100244.55
2019-04-16T07:10:14.846Z,100252.22
2019-04-16T07:12:45.751Z,100249.38
2019-04-16T07:15:16.434Z,100253.09
2019-04-16T07:17:46.754Z,100250.94
2019-04-16T07:20:17.161Z,100248.78
2019-04-16T07:22:52.747Z,100244.52
2019-04-16T07:25:21.167Z,100238.86
2019-04-16T07:28:00.034Z,100235.70
2019-04-16T07:30:38.691Z,100239.62
2019-04-16T07:33:14.773Z,100233.23
2019-04-16T07:36:04.463Z,100238.25
2019-04-16T07:38:43.274Z,100238.62
2019-04-16T07:41:26.677Z,100228.34
2019-04-16T07:44:15.593Z,100230.16
2019-04-16T07:46:59.086Z,100221.42
2019-04-16T07:49:47.379Z,100218.14
2019-04-16T07:52:38.923Z,100222.64
2019-04-16T07:55:31.055Z,100212.23
2019-04-16T07:58:01.896Z,100211.09
2019-04-16T08:00:33.625Z,100210.19
2019-04-16T08:03:04.130Z,100216.80
2019-04-16T08:05:37.844Z,100205.36
2019-04-16T08:08:07.366Z,100211.56
2019-04-16T08:10:38.067Z,100207.86
2019-04-16T08:13:34.329Z,100206.52
2019-04-16T08:16:05.125Z,100211.91
2019-04-16T08:18:37.675Z,100217.19
2019-04-16T08:21:12.079Z,100209.87
2019-04-16T08:23:43.625Z,100211.65
2019-04-16T08:26:14.112Z,100208.59
2019-04-16T08:28:44.956Z,100203.17
2019-04-16T08:31:18.531Z,100199.14
2019-04-16T08:33:49.435Z,100195.72
2019-04-16T08:36:19.798Z,100197.84
2019-04-16T08:38:50.290Z,100195.90
2019-04-16T08:41:21.668Z,100200.59
2019-04-16T08:43:52.492Z,100195.65
2019-04-16T08:46:23.303Z,100191.55
2019-04-16T08:48:54.363Z,100195.29
2019-04-16T08:51:30.663Z,100205.94
2019-04-16T08:53:57.666Z,100198.81
2019-04-16T08:56:28.077Z,100205.47
2019-04-16T08:59:01.224Z,100194.02
2019-04-16T09:01:33.866Z,100199.38
2019-04-16T09:04:04.347Z,100208.39
2019-04-16T09:06:34.825Z,100196.95
2019-04-16T09:09:18.279Z,100189.37
2019-04-16T09:11:50.741Z,100190.73
2019-04-16T09:14:25.363Z,100188.63
2019-04-16T09:17:15.833Z,100176.91
2019-04-16T09:20:06.463Z,100177.81
2019-04-16T09:22:48.222Z,100178.55
2019-04-16T09:25:28.214Z,100182.08
2019-04-16T09:28:25.615Z,100181.98
2019-04-16T09:31:26.187Z,100168.07
2019-04-16T09:34:06.785Z,100167.60
2019-04-16T09:36:56.503Z,100180.54
2019-04-16T09:39:39.136Z,100170.53
2019-04-16T09:42:09.535Z,100167.95
2019-04-16T09:44:39.920Z,100171.10
2019-04-16T09:47:10.413Z,100173.66
2019-04-16T09:49:41.364Z,100169.81
2019-04-16T09:52:11.827Z,100166.88
2019-04-16T09:54:44.463Z,100171.66
2019-04-16T09:57:14.673Z,100151.43
2019-04-16T09:59:49.637Z,100152.66
2019-04-16T10:02:26.045Z,100146.63
2019-04-16T10:04:56.481Z,100144.12
2019-04-16T10:07:26.802Z,100138.64
2019-04-16T10:09:57.533Z,100134.15
2019-04-16T10:12:28.022Z,100138.64
2019-04-16T10:14:58.635Z,100136.83
2019-04-16T10:17:30.170Z,100131.73
2019-04-16T10:20:02.333Z,100135.86
2019-04-16T10:22:32.711Z,100118.86
2019-04-16T10:25:11.626Z,100126.98
2019-04-16T10:28:05.104Z,100121.46
2019-04-16T10:30:39.070Z,100120.26
2019-04-16T10:33:09.688Z,100135.72
2019-04-16T10:35:40.072Z,100121.99
2019-04-16T10:38:28.409Z,100110.27
2019-04-16T10:41:04.530Z,100108.27
2019-04-16T10:43:46.803Z,100121.94
2019-04-16T10:46:28.762Z,100111.64
2019-04-16T10:49:18.402Z,100098.88
2019-04-16T10:52:03.571Z,100097.48
2019-04-16T10:54:44.439Z,100090.27
2019-04-16T10:57:32.402Z,100086.34
2019-04-16T11:00:11.623Z,100089.95
2019-04-16T11:02:48.201Z,100098.02
2019-04-16T11:05:32.918Z,100091.55
2019-04-16T11:08:04.272Z,100092.91
2019-04-16T11:10:36.280Z,100094.13
2019-04-16T11:13:08.699Z,100094.90
2019-04-16T11:15:39.181Z,100087.83
2019-04-16T11:18:09.660Z,100078.23
2019-04-16T11:20:40.632Z,100079.56
2019-04-16T11:23:11.024Z,100086.97
2019-04-16T11:25:42.099Z,100076.03
2019-04-16T11:28:14.330Z,100075.89
2019-04-16T11:30:49.162Z,100072.38
2019-04-16T11:33:19.739Z,100077.06
2019-04-16T11:35:53.172Z,100076.62
2019-04-16T11:38:23.060Z,100073.00
2019-04-16T11:40:54.434Z,100067.05
2019-04-16T11:43:27.242Z,100065.44
2019-04-16T11:45:57.611Z,100075.09
2019-04-16T11:48:28.319Z,100073.46
2019-04-16T11:50:59.053Z,100071.19
2019-04-16T11:53:29.964Z,100069.70
2019-04-16T11:56:00.777Z,100055.33
2019-04-16T11:58:43.491Z,100067.60
2019-04-16T12:01:32.279Z,100070.81
2019-04-16T12:04:10.967Z,100063.25
2019-04-16T12:06:57.460Z,100066.83
2019-04-16T12:09:52.657Z,100070.41
2019-04-16T12:12:27.804Z,100075.58
2019-04-16T12:15:29.635Z,100067.73
2019-04-16T12:18:07.039Z,100074.19
2019-04-16T12:20:50.134Z,100072.53
2019-04-16T12:23:43.077Z,100072.64
2019-04-16T12:26:31.281Z,100073.59
2019-04-16T12:29:32.832Z,100067.65
2019-04-16T12:32:40.620Z,100073.87
2019-04-16T12:35:22.670Z,100073.02
2019-04-16T12:38:13.092Z,100079.71
2019-04-16T12:40:57.292Z,100078.63
2019-04-16T12:43:35.996Z,100069.59
2019-04-16T12:46:30.322Z,100071.36
2019-04-16T12:49:17.218Z,100063.34
2019-04-16T12:51:57.899Z,100069.25
2019-04-16T12:54:42.460Z,100059.56
2019-04-16T12:57:46.838Z,100060.30
2019-04-16T13:00:39.296Z,100064.97
2019-04-16T13:03:28.559Z,100052.62
2019-04-16T13:06:26.155Z,100062.28
2019-04-16T13:09:30.485Z,100059.28
2019-04-16T13:12:18.198Z,100059.23
2019-04-16T13:15:09.777Z,100054.21
2019-04-16T13:18:01.895Z,100045.54
2019-04-16T13:20:49.803Z,100058.17
2019-04-16T13:23:34.140Z,100056.56
2019-04-16T13:26:15.803Z,100050.16
2019-04-16T13:28:46.107Z,100044.83
2019-04-16T13:31:17.015Z,100051.02
2019-04-16T13:33:50.746Z,100060.55
2019-04-16T13:36:19.568Z,100052.86
2019-04-16T13:38:55.436Z,100054.64
2019-04-16T13:41:27.081Z,100056.38
2019-04-16T13:44:02.240Z,100050.50
2019-04-16T13:46:34.709Z,100050.46
2019-04-16T13:49:19.409Z,100053.06
2019-04-16T13:51:49.829Z,100049.02
2019-04-16T13:54:44.669Z,100046.13
2019-04-16T13:57:17.296Z,100044.91
2019-04-16T14:00:05.714Z,100040.16
2019-04-16T14:02:56.666Z,100044.98
2019-04-16T14:05:28.418Z,100048.34
2019-04-16T14:07:59.337Z,100047.50
2019-04-16T14:10:29.972Z,100048.27
2019-04-16T14:13:02.058Z,100047.81
2019-04-16T14:15:38.983Z,100049.39
2019-04-16T14:18:07.265Z,100051.39
2019-04-16T14:20:37.634Z,100047.14
2019-04-16T14:23:08.270Z,100054.22
2019-04-16T14:25:39.275Z,100049.91
2019-04-16T14:28:09.751Z,100050.66
2019-04-16T14:30:44.631Z,100050.55
2019-04-16T14:33:20.439Z,100060.85
2019-04-16T14:35:50.878Z,100060.45
2019-04-16T14:38:28.953Z,100056.84
2019-04-16T14:40:59.419Z,100054.26
2019-04-16T14:43:34.977Z,100057.96
2019-04-16T14:46:08.469Z,100057.20
2019-04-16T14:48:42.460Z,100057.09
2019-04-16T14:51:10.231Z,100059.17
2019-04-16T14:53:46.580Z,100061.09
2019-04-16T14:56:21.277Z,100063.98
2019-04-16T14:59:29.901Z,100056.83
2019-04-16T15:02:07.898Z,100056.22
2019-04-16T15:04:57.694Z,100025.92
2019-04-16T15:07:34.766Z,100055.30
2019-04-16T15:10:25.253Z,100050.69
2019-04-16T15:13:21.028Z,100054.16
2019-04-16T15:16:21.289Z,100057.22
2019-04-16T15:19:08.278Z,100044.83
2019-04-16T15:21:57.660Z,100049.14
2019-04-16T15:24:43.222Z,100053.86
2019-04-16T15:27:40.385Z,100048.38
2019-04-16T15:30:29.379Z,100048.66
2019-04-16T15:33:18.896Z,100051.91
2019-04-16T15:36:02.026Z,100046.47
2019-04-16T15:38:36.971Z,100049.26
2019-04-16T15:41:29.243Z,100049.98
2019-04-16T15:44:31.578Z,100056.17
2019-04-16T15:47:04.516Z,100055.84
2019-04-16T15:49:40.260Z,100056.95
2019-04-16T15:52:47.742Z,100057.56
2019-04-16T15:55:36.839Z,100055.52
2019-04-16T15:58:25.101Z,100051.45
2019-04-16T16:01:49.824Z,100051.95
2019-04-16T16:04:32.809Z,100048.58
2019-04-16T16:07:12.217Z,100053.39
2019-04-16T16:10:22.991Z,100056.58
2019-04-16T16:12:53.967Z,100054.28
2019-04-16T16:15:24.737Z,100051.92
2019-04-16T16:17:55.757Z,100058.27
2019-04-16T16:20:26.028Z,100059.98
2019-04-16T16:22:58.403Z,100061.78
2019-04-16T16:25:28.607Z,100065.81
2019-04-16T16:27:59.011Z,100067.53
2019-04-16T16:30:29.423Z,100070.64
2019-04-16T16:32:59.746Z,100069.47
2019-04-16T16:35:30.339Z,100072.32
2019-04-16T16:38:01.300Z,100074.48
2019-04-16T16:40:35.877Z,100075.17
2019-04-16T16:43:08.627Z,100080.00
2019-04-16T16:45:48.632Z,100074.66
2019-04-16T16:48:21.909Z,100074.33
2019-04-16T16:50:51.996Z,100077.14
2019-04-16T16:53:28.763Z,100075.90
2019-04-16T16:56:06.080Z,100079.84
2019-04-16T16:58:54.505Z,100082.52
2019-04-16T17:01:39.629Z,100080.28
2019-04-16T17:04:13.676Z,100081.83
2019-04-16T17:06:44.529Z,100082.92
2019-04-16T17:09:31.225Z,100078.33
2019-04-16T17:12:02.691Z,100084.20
2019-04-16T17:14:36.464Z,100083.59
2019-04-16T17:17:13.900Z,100092.25
2019-04-16T17:19:38.446Z,100091.22
2019-04-16T17:22:08.915Z,100093.05
2019-04-16T17:24:39.728Z,100093.95
2019-04-16T17:27:10.183Z,100097.91
2019-04-16T17:29:40.931Z,100102.16
2019-04-16T17:32:11.413Z,100104.91
2019-04-16T17:34:42.257Z,100101.23
2019-04-16T17:37:12.609Z,100104.17
2019-04-16T17:39:57.172Z,100112.08
2019-04-16T17:42:45.781Z,100113.66
2019-04-16T17:45:53.696Z,100115.52
2019-04-16T17:48:49.174Z,100116.83
2019-04-16T17:51:25.322Z,100121.06
2019-04-16T17:54:12.353Z,100120.95
2019-04-16T17:57:10.419Z,100133.83
2019-04-16T18:00:00.481Z,100137.65
2019-04-16T18:02:43.931Z,100135.30
2019-04-16T18:05:31.589Z,100136.91
2019-04-16T18:08:39.420Z,100141.06
2019-04-16T18:11:16.392Z,100139.20
2019-04-16T18:14:10.794Z,100144.08
2019-04-16T18:16:46.720Z,100152.29
2019-04-16T18:19:38.656Z,100157.34
2019-04-16T18:22:27.966Z,100156.08
2019-04-16T18:25:22.138Z,100155.73
2019-04-16T18:28:05.356Z,100156.38
2019-04-16T18:30:44.532Z,100161.77
2019-04-16T18:33:39.654Z,100167.75
2019-04-16T18:36:37.881Z,100167.60
2019-04-16T18:39:26.300Z,100172.27
2019-04-16T18:42:00.914Z,100178.16
2019-04-16T18:44:51.309Z,100175.67
2019-04-16T18:47:34.141Z,100182.22
2019-04-16T18:50:07.343Z,100193.35
2019-04-16T18:52:38.050Z,100193.10
2019-04-16T18:55:08.664Z,100196.73
2019-04-16T18:57:39.259Z,100201.13
2019-04-16T19:00:28.767Z,100204.89
2019-04-16T19:02:59.613Z,100212.89
2019-04-16T19:05:30.059Z,100215.38
2019-04-16T19:08:01.297Z,100223.70
2019-04-16T19:10:31.917Z,100227.78
2019-04-16T19:13:02.339Z,100227.78
2019-04-16T19:15:32.885Z,100229.66
2019-04-16T19:18:18.601Z,100233.44
2019-04-16T19:20:35.923Z,100239.02
2019-04-16T19:23:06.996Z,100238.58
2019-04-16T19:25:37.477Z,100245.56
2019-04-16T19:28:07.886Z,100246.69
2019-04-16T19:30:38.432Z,100244.07
2019-04-16T19:33:08.897Z,100249.95
2019-04-16T19:35:39.600Z,100251.41
2019-04-16T19:38:10.064Z,100252.44
2019-04-16T19:40:40.458Z,100253.05
2019-04-16T19:43:11.272Z,100254.77
2019-04-16T19:45:43.745Z,100264.59
2019-04-16T19:48:17.594Z,100256.97
2019-04-16T19:50:45.826Z,100261.17
2019-04-16T19:53:16.250Z,100263.33
2019-04-16T19:55:46.687Z,100264.27
2019-04-16T19:58:17.109Z,100264.83
2019-04-16T20:00:47.824Z,100272.48
2019-04-16T20:03:21.054Z,100270.16
2019-04-16T20:05:51.324Z,100274.69
2019-04-16T20:08:22.385Z,100269.95
2019-04-16T20:10:53.641Z,100272.79
2019-04-16T20:13:24.015Z,100273.97
2019-04-16T20:15:55.127Z,100273.89
2019-04-16T20:18:31.564Z,100274.58
2019-04-16T20:21:02.335Z,100274.14
2019-04-16T20:23:33.073Z,100275.08
2019-04-16T20:26:05.587Z,100281.80
2019-04-16T20:28:36.844Z,100290.95
2019-04-16T20:31:07.303Z,100280.07
2019-04-16T20:33:37.688Z,100294.04
2019-04-16T20:36:08.128Z,100291.00
2019-04-16T20:38:38.549Z,100296.16
2019-04-16T20:41:09.002Z,100297.55
2019-04-16T20:43:39.405Z,100294.08
2019-04-16T20:46:09.732Z,100302.53
2019-04-16T20:48:41.911Z,100298.56
2019-04-16T20:51:13.064Z,100301.56
2019-04-16T20:53:46.272Z,100305.28
2019-04-16T20:56:20.022Z,100308.23
2019-04-16T20:58:49.006Z,100314.73
2019-04-16T21:01:32.810Z,100319.42
2019-04-16T21:04:05.074Z,100326.67
2019-04-16T21:06:31.078Z,100330.38
2019-04-16T21:09:02.531Z,100334.14
2019-04-16T21:11:33.495Z,100340.66
2019-04-16T21:14:04.810Z,100340.23
2019-04-16T21:16:35.231Z,100344.66
2019-04-16T21:19:21.627Z,100350.75
2019-04-16T21:21:38.392Z,100358.74
2019-04-16T21:24:09.238Z,100360.59
2019-04-16T21:26:40.773Z,100355.27
2019-04-16T21:29:21.360Z,100359.86
2019-04-16T21:31:54.811Z,100366.97
2019-04-16T21:34:34.725Z,100361.50
2019-04-16T21:37:22.612Z,100368.92
2019-04-16T21:39:58.076Z,100360.06
2019-04-16T21:42:28.512Z,100369.10
2019-04-16T21:44:59.172Z,100371.12
2019-04-16T21:47:29.520Z,100372.95
2019-04-16T21:50:00.073Z,100374.58
2019-04-16T21:52:32.795Z,100379.45
2019-04-16T21:55:05.056Z,100376.52
2019-04-16T21:57:35.533Z,100371.89
2019-04-16T22:00:08.858Z,100378.92
2019-04-16T22:02:39.938Z,100376.84
2019-04-16T22:05:11.270Z,100373.94
2019-04-16T22:07:42.051Z,100374.75
2019-04-16T22:10:12.512Z,100374.39
2019-04-16T22:12:44.724Z,100372.56
2019-04-16T22:15:14.992Z,100369.20
2019-04-16T22:17:45.323Z,100370.80
2019-04-16T22:20:15.670Z,100369.81
2019-04-16T22:22:47.368Z,100370.41
2019-04-16T22:25:17.856Z,100369.52
2019-04-16T22:27:48.216Z,100374.39
2019-04-16T22:30:20.095Z,100383.47
2019-04-16T22:32:51.280Z,100383.93
2019-04-16T22:35:22.327Z,100394.21
2019-04-16T22:37:53.159Z,100389.20
2019-04-16T22:40:46.422Z,100396.18
2019-04-16T22:43:39.592Z,100397.32
2019-04-16T22:46:28.730Z,100398.27
2019-04-16T22:49:00.366Z,100401.73
2019-04-16T22:51:31.004Z,100408.72
2019-04-16T22:54:01.871Z,100411.37
2019-04-16T22:56:54.354Z,100416.89
2019-04-16T22:59:24.985Z,100415.52
2019-04-16T23:01:55.296Z,100411.92
2019-04-16T23:04:27.005Z,100414.64
2019-04-16T23:06:58.068Z,100413.00
2019-04-16T23:09:30.438Z,100408.76
2019-04-16T23:12:01.214Z,100404.05
2019-04-16T23:14:34.442Z,100404.15
2019-04-16T23:17:03.979Z,100410.71
2019-04-16T23:19:34.386Z,100399.05
2019-04-16T23:22:04.933Z,100405.71
2019-04-16T23:24:35.771Z,100401.83
2019-04-16T23:27:06.717Z,100406.29
2019-04-16T23:29:37.788Z,100406.66
2019-04-16T23:32:08.596Z,100403.41
2019-04-16T23:34:39.148Z,100408.57
2019-04-16T23:37:09.677Z,100406.51
2019-04-16T23:39:40.281Z,100411.30
2019-04-16T23:42:11.290Z,100414.38
2019-04-16T23:45:00.516Z,100410.42
2019-04-16T23:47:57.387Z,100411.39
2019-04-16T23:50:45.234Z,100410.15
2019-04-16T23:53:15.270Z,100408.93
2019-04-16T23:56:04.477Z,100413.03
2019-04-16T23:59:01.461Z,100412.23
